Time;durP1;ratioP1;P1;durP2;ratioP2;P2;SDS_P1;SDS_P2;PMS_P1;PMS_P2;Temp;Humidity;BMP_temperature;BMP_pressure;BME280_temperature;BME280_humidity;BME280_pressure;Samples;Min_cycle;Max_cycle;Signal;HPM_P1;HPM_P2
2022/06/26 00:02:17;;;;;;;;;2.00;2.00;;;;;17.78;57.26;100714.72;5039897;28;47465;-57
2022/06/26 00:04:42;;;;;;;;;2.75;1.50;;;;;17.78;57.34;100718.22;5036864;28;45418;-56
2022/06/26 00:07:07;;;;;;;;;2.00;2.00;;;;;17.76;57.45;100714.81;5037055;28;45497;-56
2022/06/26 00:09:33;;;;;;;;;3.75;2.50;;;;;17.74;57.56;100726.41;5039347;28;66550;-55
2022/06/26 00:11:58;;;;;;;;;3.25;2.00;;;;;17.69;57.70;100723.16;5040378;28;46533;-56
2022/06/26 00:14:24;;;;;;;;;1.25;1.25;;;;;17.67;57.30;100720.63;5034200;28;62661;-55
2022/06/26 00:16:49;;;;;;;;;2.00;2.00;;;;;17.65;57.77;100723.34;5035350;28;45275;-54
2022/06/26 00:19:15;;;;;;;;;4.00;2.00;;;;;17.62;57.68;100722.69;5032399;28;45224;-55
2022/06/26 00:21:40;;;;;;;;;2.25;2.25;;;;;17.61;57.58;100728.91;5034016;28;45758;-56
2022/06/26 00:24:06;;;;;;;;;3.75;3.00;;;;;17.61;57.63;100726.25;5027908;28;52865;-56
2022/06/26 00:26:31;;;;;;;;;2.00;2.00;;;;;17.64;57.76;100726.94;5027628;28;45379;-55
2022/06/26 00:28:56;;;;;;;;;1.25;0.75;;;;;17.68;57.14;100714.38;5029345;28;64068;-56
2022/06/26 00:31:22;;;;;;;;;3.25;2.00;;;;;17.69;57.64;100710.81;5028070;28;71052;-56
2022/06/26 00:33:47;;;;;;;;;2.25;1.75;;;;;17.70;57.95;100714.28;5033628;28;69803;-56
2022/06/26 00:36:12;;;;;;;;;1.25;1.00;;;;;17.69;57.74;100707.28;5032273;28;64703;-56
2022/06/26 00:38:38;;;;;;;;;3.75;3.00;;;;;17.69;57.38;100709.94;5036970;28;67066;-56
2022/06/26 00:41:05;;;;;;;;;1.00;1.00;;;;;17.71;57.88;100706.28;5034297;28;72219;-56
2022/06/26 00:43:30;;;;;;;;;4.00;2.25;;;;;17.66;57.60;100718.91;5029946;28;45374;-56
2022/06/26 00:45:56;;;;;;;;;3.75;2.00;;;;;17.60;57.88;100717.47;5023723;28;66961;-57
2022/06/26 00:48:21;;;;;;;;;5.75;1.75;;;;;17.56;58.16;100715.91;5034362;28;70384;-56
2022/06/26 00:50:47;;;;;;;;;3.75;2.00;;;;;17.51;58.01;100707.41;5032654;28;45429;-55
2022/06/26 00:53:12;;;;;;;;;6.50;3.75;;;;;17.51;57.82;100707.41;5033902;28;45938;-53
2022/06/26 00:55:38;;;;;;;;;3.00;3.00;;;;;17.50;58.18;100716.28;5030458;28;45410;-54
2022/06/26 00:58:03;;;;;;;;;2.50;2.25;;;;;17.46;58.53;100730.63;5032225;28;45512;-55
2022/06/26 01:00:29;;;;;;;;;3.25;2.00;;;;;17.40;58.50;100734.44;5034884;28;67496;-55
2022/06/26 01:02:54;;;;;;;;;4.25;2.25;;;;;17.38;58.42;100732.84;5038523;28;65180;-55
2022/06/26 01:05:20;;;;;;;;;4.25;2.50;;;;;17.38;58.03;100731.03;5031028;28;45674;-56
2022/06/26 01:07:45;;;;;;;;;5.00;3.00;;;;;17.38;58.44;100731.03;5032730;28;71318;-55
2022/06/26 01:10:11;;;;;;;;;3.25;1.75;;;;;17.37;57.77;100733.75;5026326;28;45376;-55
2022/06/26 01:12:36;;;;;;;;;2.00;2.00;;;;;17.34;58.23;100729.50;5030429;28;45286;-55
2022/06/26 01:15:02;;;;;;;;;3.75;3.00;;;;;17.31;59.16;100729.66;5030148;28;45324;-55
2022/06/26 01:17:27;;;;;;;;;4.00;3.75;;;;;17.30;58.46;100735.03;5030072;28;45828;-55
2022/06/26 01:19:54;;;;;;;;;3.75;3.00;;;;;17.32;58.96;100741.97;5031425;28;45567;-55
2022/06/26 01:22:20;;;;;;;;;3.00;3.00;;;;;17.31;59.19;100749.97;5030541;28;45408;-55
2022/06/26 01:24:46;;;;;;;;;3.50;3.00;;;;;17.27;58.37;100744.00;5030458;28;47511;-56
2022/06/26 01:27:12;;;;;;;;;3.25;2.50;;;;;17.26;58.54;100740.53;5020670;28;45309;-55
2022/06/26 01:29:37;;;;;;;;;4.75;3.00;;;;;17.27;58.54;100744.84;5013452;28;49618;-54
2022/06/26 01:32:03;;;;;;;;;3.75;2.75;;;;;17.28;58.70;100743.06;5033567;28;66076;-55
2022/06/26 01:34:29;;;;;;;;;3.00;2.50;;;;;17.27;58.28;100741.38;5034443;28;45557;-55
2022/06/26 01:36:55;;;;;;;;;3.00;2.50;;;;;17.26;58.22;100747.59;5031574;28;54584;-54
2022/06/26 01:39:20;;;;;;;;;3.00;3.00;;;;;17.26;58.43;100747.59;5031394;28;47178;-55
2022/06/26 01:41:47;;;;;;;;;2.75;2.75;;;;;17.26;58.63;100751.09;5027543;28;45391;-56
2022/06/26 01:44:13;;;;;;;;;2.50;1.50;;;;;17.21;58.48;100750.50;5033439;28;45648;-54
2022/06/26 01:46:38;;;;;;;;;2.75;2.00;;;;;17.20;58.95;100759.34;5022864;28;45390;-53
2022/06/26 01:49:03;;;;;;;;;4.25;2.25;;;;;17.19;58.45;100755.03;5032918;28;46527;-55
2022/06/26 01:51:29;;;;;;;;;4.25;3.00;;;;;17.19;59.01;100772.66;5028801;28;47317;-55
2022/06/26 01:53:54;;;;;;;;;4.75;2.75;;;;;17.14;58.75;100770.28;5029171;28;59968;-57
2022/06/26 01:56:19;;;;;;;;;1.75;1.75;;;;;17.14;58.77;100770.28;5025171;28;72051;-55
2022/06/26 01:58:45;;;;;;;;;4.00;2.25;;;;;17.14;58.64;100765.00;5030428;28;47245;-55
2022/06/26 02:01:11;;;;;;;;;4.75;2.75;;;;;17.17;58.81;100756.03;5035421;28;45355;-55
2022/06/26 02:03:36;;;;;;;;;2.75;1.75;;;;;17.20;58.58;100758.50;5028000;28;45529;-54
2022/06/26 02:06:01;;;;;;;;;3.50;2.75;;;;;17.22;58.01;100757.47;5027898;28;45469;-54
2022/06/26 02:08:27;;;;;;;;;3.00;2.50;;;;;17.24;58.51;100768.81;5028201;28;45454;-55
2022/06/26 02:13:36;;;;;;;;;3.25;3.25;;;;;17.22;58.27;100760.13;5028231;28;45479;-56
2022/06/26 02:16:18;;;;;;;;;5.00;2.00;;;;;17.22;58.38;100760.13;5017947;28;45572;-54
2022/06/26 02:18:49;;;;;;;;;2.75;2.75;;;;;17.21;58.66;100763.72;5035889;28;47275;-55
2022/06/26 02:21:17;;;;;;;;;5.00;1.75;;;;;17.17;59.00;100763.97;5026580;28;45672;-56
2022/06/26 02:23:43;;;;;;;;;4.75;3.00;;;;;17.10;58.88;100773.16;5028954;28;45160;-55
2022/06/26 02:26:09;;;;;;;;;7.00;3.00;;;;;17.06;59.18;100768.03;5032801;28;45466;-56
2022/06/26 02:28:35;;;;;;;;;3.50;3.00;;;;;17.05;58.79;100773.38;5028648;28;45434;-56
2022/06/26 02:31:01;;;;;;;;;5.00;3.00;;;;;17.06;58.78;100783.03;5030093;28;45338;-56
2022/06/26 02:33:28;;;;;;;;;5.00;2.75;;;;;17.03;59.16;100778.78;5029611;28;45364;-55
2022/06/26 02:35:55;;;;;;;;;3.75;3.50;;;;;17.04;58.84;100774.34;5033136;28;45332;-56
2022/06/26 02:38:20;;;;;;;;;3.75;3.50;;;;;17.05;59.02;100755.75;5037385;28;46060;-55
2022/06/26 02:40:46;;;;;;;;;3.00;3.00;;;;;17.10;58.82;100754.66;5032140;28;47040;-56
2022/06/26 02:43:11;;;;;;;;;2.50;2.25;;;;;17.12;58.92;100750.13;5025397;28;58308;-55
2022/06/26 02:45:37;;;;;;;;;3.75;3.00;;;;;17.13;58.64;100757.97;5031277;28;70852;-54
2022/06/26 02:48:02;;;;;;;;;5.75;2.50;;;;;17.17;58.67;100762.16;5024232;28;71609;-56
2022/06/26 02:50:27;;;;;;;;;3.75;1.50;;;;;17.18;58.89;100763.03;5034646;28;45931;-56
2022/06/26 02:52:53;;;;;;;;;2.00;2.00;;;;;17.15;58.96;100764.03;5032312;28;49178;-56
2022/06/26 02:55:18;;;;;;;;;3.50;2.75;;;;;17.12;58.71;100769.47;5036958;28;45481;-56
2022/06/26 02:57:44;;;;;;;;;2.00;2.00;;;;;17.08;59.31;100762.66;5033960;28;64446;-56
2022/06/26 03:00:11;;;;;;;;;3.50;1.75;;;;;17.08;58.77;100765.31;5027974;28;45285;-56
2022/06/26 03:02:37;;;;;;;;;4.75;3.75;;;;;17.08;58.79;100770.59;5029173;28;45322;-56
2022/06/26 03:05:03;;;;;;;;;2.50;2.25;;;;;17.10;58.69;100781.09;5032028;28;63849;-56
2022/06/26 03:07:28;;;;;;;;;5.00;2.50;;;;;17.10;58.71;100773.16;5023473;28;46202;-56
2022/06/26 03:09:53;;;;;;;;;7.50;3.50;;;;;17.10;58.48;100771.34;5029340;28;66305;-56
2022/06/26 03:12:18;;;;;;;;;4.25;2.50;;;;;17.11;58.72;100777.53;5027961;28;62115;-56
2022/06/26 03:14:44;;;;;;;;;4.00;3.00;;;;;17.08;58.23;100779.38;5030960;28;68457;-56
2022/06/26 03:17:09;;;;;;;;;5.25;4.50;;;;;17.04;58.31;100785.75;5023518;28;68463;-56
2022/06/26 03:19:34;;;;;;;;;2.75;2.75;;;;;17.04;58.20;100787.56;5030869;28;45261;-56
2022/06/26 03:22:00;;;;;;;;;3.25;2.00;;;;;17.02;58.31;100784.16;5033119;28;65530;-55
2022/06/26 03:24:25;;;;;;;;;5.00;1.75;;;;;17.02;58.65;100784.16;5029530;28;69462;-55
2022/06/26 03:26:51;;;;;;;;;1.75;1.25;;;;;16.97;58.30;100783.53;5031465;28;61646;-55
2022/06/26 03:29:16;;;;;;;;;3.75;1.75;;;;;16.92;58.55;100783.78;5031330;28;45420;-56
2022/06/26 03:31:42;;;;;;;;;4.50;3.00;;;;;16.92;58.69;100790.84;5034457;28;61133;-57
2022/06/26 03:34:07;;;;;;;;;3.00;2.00;;;;;16.90;58.85;100783.00;5035177;28;45550;-56
2022/06/26 03:36:33;;;;;;;;;5.00;1.50;;;;;16.85;58.81;100780.59;5028003;28;70330;-55
2022/06/26 03:38:59;;;;;;;;;4.00;2.50;;;;;16.87;58.76;100791.97;5031964;28;45688;-56
2022/06/26 03:41:25;;;;;;;;;2.25;1.50;;;;;16.84;58.23;100791.28;5034054;28;45464;-56
2022/06/26 03:43:51;;;;;;;;;3.50;3.50;;;;;16.84;58.40;100796.56;5034911;28;45764;-56
2022/06/26 03:46:16;;;;;;;;;2.75;2.25;;;;;16.80;58.53;100792.31;5031633;28;66821;-55
2022/06/26 03:48:42;;;;;;;;;4.50;3.00;;;;;16.77;58.68;100784.53;5034423;28;45356;-56
2022/06/26 03:51:08;;;;;;;;;3.25;0.50;;;;;16.80;58.35;100787.91;5035572;28;45610;-55
2022/06/26 03:53:34;;;;;;;;;4.25;1.50;;;;;16.82;57.96;100790.44;5033555;28;45474;-55
2022/06/26 03:55:59;;;;;;;;;3.00;2.50;;;;;16.88;58.21;100787.53;5033512;28;45357;-55
2022/06/26 03:58:25;;;;;;;;;4.00;2.25;;;;;16.92;57.96;100783.78;5034937;28;50604;-52
2022/06/26 04:00:51;;;;;;;;;1.00;0.50;;;;;16.93;57.60;100798.72;5034993;28;64494;-55
2022/06/26 04:03:17;;;;;;;;;2.50;2.50;;;;;16.89;58.04;100800.66;5037628;28;45700;-54
2022/06/26 04:05:43;;;;;;;;;3.00;2.25;;;;;16.88;58.06;100804.22;5039445;28;46491;-55
2022/06/26 04:08:08;;;;;;;;;4.00;3.00;;;;;16.88;57.75;100804.22;5031857;28;46022;-54
2022/06/26 04:10:34;;;;;;;;;2.25;2.00;;;;;16.89;57.49;100813.00;4996584;28;45298;-55
2022/06/26 04:13:02;;;;;;;;;3.50;2.25;;;;;16.91;57.74;100815.56;5036438;28;45517;-58
2022/06/26 04:15:29;;;;;;;;;4.25;1.25;;;;;16.91;57.58;100821.72;5047833;28;46880;-57
2022/06/26 04:17:54;;;;;;;;;2.00;2.00;;;;;16.89;57.32;100834.16;5036786;28;45232;-55
2022/06/26 04:20:20;;;;;;;;;4.00;3.25;;;;;16.91;57.09;100826.16;5030254;28;45944;-55
2022/06/26 04:22:55;;;;;;;;;2.50;1.75;;;;;16.94;57.17;100839.22;5038422;28;45509;-54
2022/06/26 04:25:20;;;;;;;;;4.25;1.50;;;;;16.95;57.21;100833.84;5038874;28;46391;-55
2022/06/26 04:27:46;;;;;;;;;1.75;1.50;;;;;16.99;56.82;100837.19;5035667;28;46850;-55
2022/06/26 04:30:11;;;;;;;;;3.25;1.50;;;;;17.02;56.54;100842.31;5030500;28;56543;-56
2022/06/26 04:32:36;;;;;;;;;3.00;1.25;;;;;17.04;56.58;100848.38;5038521;28;53629;-56
2022/06/26 04:35:02;;;;;;;;;4.75;2.75;;;;;17.05;56.09;100850.06;5016052;28;51360;-55
2022/06/26 04:37:27;;;;;;;;;1.75;1.25;;;;;17.05;55.82;100850.06;5031411;28;45513;-55
2022/06/26 04:39:53;;;;;;;;;4.00;1.50;;;;;17.05;56.03;100852.72;5038196;28;45264;-55
2022/06/26 04:42:18;;;;;;;;;1.50;1.50;;;;;17.04;55.85;100843.94;5038596;28;67648;-56
2022/06/26 04:44:43;;;;;;;;;2.00;2.00;;;;;17.07;55.85;100848.22;5033757;28;57414;-56
2022/06/26 04:47:08;;;;;;;;;4.50;1.75;;;;;17.08;55.59;100844.63;5031846;28;46990;-56
2022/06/26 04:49:34;;;;;;;;;1.75;1.75;;;;;17.10;55.79;100847.19;5037641;28;60867;-55
2022/06/26 04:51:59;;;;;;;;;4.00;1.00;;;;;17.12;55.28;100850.59;5031407;28;56042;-56
2022/06/26 04:54:24;;;;;;;;;1.75;1.75;;;;;17.17;55.62;100864.44;5033929;28;58189;-54
2022/06/26 04:56:50;;;;;;;;;1.50;1.50;;;;;17.20;55.08;100865.13;5035456;28;71944;-56
2022/06/26 04:59:15;;;;;;;;;2.00;1.50;;;;;17.23;55.27;100866.78;5029525;28;54501;-55
2022/06/26 05:01:40;;;;;;;;;2.00;1.75;;;;;17.29;54.95;100865.59;5028194;28;69955;-56
2022/06/26 05:04:06;;;;;;;;;4.00;2.50;;;;;17.33;55.04;100870.63;5037274;28;45938;-54
2022/06/26 05:06:31;;;;;;;;;0.75;0.75;;;;;17.40;54.67;100871.16;5033672;28;45430;-55
2022/06/26 05:08:56;;;;;;;;;0.75;0.75;;;;;17.48;54.63;100862.84;5033389;28;64718;-55
2022/06/26 05:11:22;;;;;;;;;2.00;2.00;;;;;17.54;54.47;100865.13;5032448;28;59633;-56
2022/06/26 05:13:47;;;;;;;;;3.50;2.00;;;;;17.58;53.71;100875.47;5032110;28;72668;-59
2022/06/26 05:16:12;;;;;;;;;3.75;1.75;;;;;17.61;54.03;100869.16;5028406;28;58969;-58
2022/06/26 05:18:38;;;;;;;;;3.25;2.00;;;;;17.63;53.88;100868.13;5031983;28;50183;-56
2022/06/26 05:21:03;;;;;;;;;1.75;0.75;;;;;17.67;54.21;100875.91;5034426;28;45336;-57
2022/06/26 05:23:29;;;;;;;;;2.50;1.50;;;;;17.67;53.72;100874.13;5030676;28;46223;-57
2022/06/26 05:25:54;;;;;;;;;3.00;1.00;;;;;17.69;53.70;100874.91;5030637;28;61250;-57
2022/06/26 05:28:19;;;;;;;;;4.00;2.75;;;;;17.71;53.29;100870.38;5034034;28;45510;-56
2022/06/26 05:30:45;;;;;;;;;3.00;2.00;;;;;17.72;53.71;100860.63;5025764;28;45313;-56
2022/06/26 05:33:10;;;;;;;;;3.75;2.25;;;;;17.75;53.57;100873.69;5034320;28;45331;-56
2022/06/26 05:35:36;;;;;;;;;4.75;2.75;;;;;17.76;53.59;100863.03;5026840;28;45157;-56
2022/06/26 05:38:01;;;;;;;;;3.00;2.75;;;;;17.82;54.08;100872.44;5031796;28;64723;-56
2022/06/26 05:40:27;;;;;;;;;7.25;2.50;;;;;17.85;53.51;100880.22;5036175;28;67961;-57
2022/06/26 05:42:54;;;;;;;;;2.50;2.00;;;;;17.83;53.50;100885.56;5027825;28;46191;-56
2022/06/26 05:45:20;;;;;;;;;2.50;1.00;;;;;17.82;53.42;100867.97;5037850;28;45567;-56
2022/06/26 05:47:45;;;;;;;;;3.75;1.75;;;;;17.89;53.50;100883.56;5035637;28;45285;-56
2022/06/26 05:50:10;;;;;;;;;6.00;2.75;;;;;17.93;53.37;100880.66;5034222;28;69264;-57
2022/06/26 05:52:35;;;;;;;;;3.00;1.75;;;;;17.97;52.92;100881.34;5036980;28;70819;-58
2022/06/26 05:55:01;;;;;;;;;2.25;2.25;;;;;17.98;53.10;100875.94;5030943;28;68499;-57
2022/06/26 05:57:26;;;;;;;;;2.25;2.00;;;;;18.01;53.14;100880.25;5036226;28;68253;-56
2022/06/26 05:59:51;;;;;;;;;3.00;2.50;;;;;18.06;52.96;100877.31;5032653;28;67459;-57
2022/06/26 06:02:17;;;;;;;;;1.50;1.50;;;;;18.11;52.76;100884.06;5038082;28;47239;-58
2022/06/26 06:04:42;;;;;;;;;4.00;2.75;;;;;18.18;52.93;100879.28;5037450;28;64378;-57
2022/06/26 06:07:08;;;;;;;;;2.75;2.00;;;;;18.23;52.72;100884.31;5027860;28;45273;-57
2022/06/26 06:09:34;;;;;;;;;3.00;1.50;;;;;18.26;52.31;100885.00;5036483;28;45669;-57
2022/06/26 06:11:59;;;;;;;;;5.00;2.00;;;;;18.31;52.37;100890.03;5031071;28;65209;-57
2022/06/26 06:14:24;;;;;;;;;3.25;2.00;;;;;18.37;52.29;100887.88;5035243;28;45387;-58
2022/06/26 06:16:50;;;;;;;;;3.50;2.75;;;;;18.42;51.92;100894.72;5033965;28;45430;-57
2022/06/26 06:19:15;;;;;;;;;3.75;2.00;;;;;18.45;52.05;100897.19;5036680;28;45538;-58
2022/06/26 06:21:41;;;;;;;;;5.00;2.25;;;;;18.48;51.93;100892.56;5030173;28;57389;-57
2022/06/26 06:24:06;;;;;;;;;3.00;2.00;;;;;18.51;51.62;100888.91;5027331;28;45942;-56
2022/06/26 06:26:32;;;;;;;;;2.00;2.00;;;;;18.55;51.64;100896.56;5052987;28;45392;-57
2022/06/26 06:28:57;;;;;;;;;2.00;1.25;;;;;18.58;51.52;100900.84;5034287;28;45522;-57
2022/06/26 06:31:23;;;;;;;;;1.25;1.25;;;;;18.60;51.25;100904.25;5038227;28;46363;-57
2022/06/26 06:33:48;;;;;;;;;3.25;1.75;;;;;18.60;51.53;100905.09;5030511;28;45227;-57
2022/06/26 06:36:14;;;;;;;;;2.00;2.00;;;;;18.62;51.30;100912.97;5037563;28;45527;-57
2022/06/26 06:38:39;;;;;;;;;3.25;1.50;;;;;18.63;51.15;100911.16;5034750;28;45493;-58
2022/06/26 06:41:04;;;;;;;;;1.50;1.00;;;;;18.64;51.27;100907.59;5028121;28;65501;-57
2022/06/26 06:43:30;;;;;;;;;3.00;1.00;;;;;18.64;50.74;100910.25;5030369;28;66350;-57
2022/06/26 06:45:55;;;;;;;;;2.75;2.25;;;;;18.65;50.25;100911.97;5035813;28;45451;-56
2022/06/26 06:48:24;;;;;;;;;2.75;1.25;;;;;18.64;50.18;100912.88;5032343;28;70103;-57
2022/06/26 06:50:49;;;;;;;;;1.50;1.00;;;;;18.63;50.07;100916.47;5039001;28;46912;-56
2022/06/26 06:53:15;;;;;;;;;2.00;2.00;;;;;18.66;50.75;100917.19;5039929;28;45417;-57
2022/06/26 06:55:40;;;;;;;;;2.50;2.00;;;;;18.70;49.97;100921.34;5024839;28;45426;-57
2022/06/26 06:58:05;;;;;;;;;2.50;2.00;;;;;18.73;49.81;100920.31;5039921;28;61214;-56
2022/06/26 07:00:31;;;;;;;;;4.50;2.50;;;;;18.77;49.81;100933.31;5032100;28;63211;-55
2022/06/26 07:03:00;;;;;;;;;1.50;0.25;;;;;18.79;48.77;100925.25;5041460;28;45376;-57
2022/06/26 07:05:26;;;;;;;;;1.50;1.50;;;;;18.79;49.14;100936.72;5033122;28;45609;-57
2022/06/26 07:07:51;;;;;;;;;3.00;2.00;;;;;18.82;49.02;100934.84;5032735;28;45447;-57
2022/06/26 07:10:17;;;;;;;;;1.75;1.00;;;;;18.86;48.98;100939.06;5035601;28;74065;-56
2022/06/26 07:12:53;;;;;;;;;2.25;1.00;;;;;18.90;49.19;100944.06;5039252;28;69823;-57
2022/06/26 07:15:19;;;;;;;;;2.00;1.00;;;;;18.95;48.49;100947.31;5036210;28;45458;-58
2022/06/26 07:17:44;;;;;;;;;3.00;1.00;;;;;18.96;48.12;100946.38;5039379;28;45460;-58
2022/06/26 07:20:10;;;;;;;;;1.50;1.50;;;;;18.94;47.52;100950.91;5036399;28;67914;-55
2022/06/26 07:22:35;;;;;;;;;3.00;1.00;;;;;18.95;48.54;100968.53;5033250;28;45374;-57
2022/06/26 07:25:00;;;;;;;;;3.75;2.00;;;;;18.99;48.00;100953.28;5033464;28;45346;-58
2022/06/26 07:27:26;;;;;;;;;2.00;1.00;;;;;19.06;48.08;100953.78;5036506;28;45760;-57
2022/06/26 07:29:52;;;;;;;;;3.25;1.75;;;;;19.11;47.20;100964.97;5036007;28;45316;-51
2022/06/26 07:32:18;;;;;;;;;3.25;2.00;;;;;19.13;45.77;100976.34;5038808;28;45287;-63
2022/06/26 07:34:43;;;;;;;;;1.25;1.25;;;;;19.14;45.48;100978.03;5034127;28;45422;-63
2022/06/26 07:37:08;;;;;;;;;2.00;1.00;;;;;19.15;44.27;100975.31;5039141;28;45513;-64
2022/06/26 07:39:34;;;;;;;;;2.50;1.00;;;;;19.18;45.70;100978.75;5031139;28;46185;-64
2022/06/26 07:41:59;;;;;;;;;2.00;2.00;;;;;19.26;46.58;100972.00;5037239;28;58197;-64
2022/06/26 07:44:24;;;;;;;;;3.75;3.00;;;;;19.37;46.82;100971.41;5032681;28;63987;-63
2022/06/26 07:46:50;;;;;;;;;2.75;1.00;;;;;19.51;47.32;100971.41;5036483;28;45502;-61
2022/06/26 07:49:15;;;;;;;;;5.50;2.50;;;;;19.63;43.34;100979.56;5032497;28;46217;-60
2022/06/26 07:51:41;;;;;;;;;4.25;1.00;;;;;19.67;44.03;100966.00;5035995;28;45361;-60
2022/06/26 07:54:06;;;;;;;;;1.75;1.00;;;;;19.71;44.38;100964.88;5037544;28;67508;-60
2022/06/26 07:56:31;;;;;;;;;4.00;2.00;;;;;19.86;46.07;100965.75;5036879;28;45393;-60
2022/06/26 07:58:57;;;;;;;;;1.00;1.00;;;;;20.03;43.36;100972.66;5035905;28;65693;-59
2022/06/26 08:01:23;;;;;;;;;3.00;1.00;;;;;20.14;42.98;100971.13;5029249;28;45420;-59
2022/06/26 08:03:48;;;;;;;;;1.00;1.00;;;;;20.17;44.10;100970.91;5014877;28;45486;-59
2022/06/26 08:06:14;;;;;;;;;5.00;1.25;;;;;20.29;44.53;100972.78;5024456;28;45331;-59
2022/06/26 08:08:40;;;;;;;;;1.00;1.00;;;;;20.46;41.84;100971.72;5025532;28;46133;-59
2022/06/26 08:11:05;;;;;;;;;1.50;1.25;;;;;20.48;40.25;100961.84;5032079;28;45332;-60
2022/06/26 08:13:31;;;;;;;;;2.00;1.00;;;;;20.51;42.92;100964.31;5031939;28;45258;-61
2022/06/26 08:15:56;;;;;;;;;2.00;1.00;;;;;20.65;43.54;100958.97;5021957;28;45272;-61
2022/06/26 08:18:22;;;;;;;;;1.00;1.00;;;;;20.82;42.47;100960.53;5019646;28;47651;-51
2022/06/26 08:20:47;;;;;;;;;1.00;1.00;;;;;20.95;43.43;100957.88;5031159;28;72417;-49
2022/06/26 08:23:12;;;;;;;;;1.00;1.00;;;;;21.05;42.34;100966.09;5036314;28;45526;-63
2022/06/26 08:25:38;;;;;;;;;2.00;1.00;;;;;21.18;43.71;100961.66;5028479;28;53207;-58
2022/06/26 08:28:04;;;;;;;;;2.75;1.50;;;;;21.35;42.61;100967.63;5035257;28;46217;-56
2022/06/26 08:30:29;;;;;;;;;0.00;0.00;;;;;21.47;41.91;100966.81;5036879;28;45685;-59
2022/06/26 08:32:58;;;;;;;;;3.00;1.00;;;;;21.56;41.10;100968.81;5034267;28;67660;-60
2022/06/26 08:35:25;;;;;;;;;1.00;1.00;;;;;21.63;40.49;100971.91;5033890;28;45272;-58
2022/06/26 08:37:51;;;;;;;;;2.25;1.00;;;;;21.66;40.28;100965.53;5037100;28;47040;-58
2022/06/26 08:40:16;;;;;;;;;1.00;1.00;;;;;21.64;39.96;100968.31;5037169;28;45371;-60
2022/06/26 08:42:42;;;;;;;;;1.75;1.75;;;;;21.69;41.11;100970.63;5037410;28;45471;-59
2022/06/26 08:45:08;;;;;;;;;1.75;0.75;;;;;21.74;39.73;100969.38;5026028;28;45522;-60
2022/06/26 08:47:36;;;;;;;;;1.25;1.25;;;;;21.80;40.18;100960.09;5031620;28;46001;-58
2022/06/26 08:50:02;;;;;;;;;0.00;0.00;;;;;21.86;40.38;100962.31;5032048;28;45498;-60
2022/06/26 08:52:29;;;;;;;;;2.75;1.00;;;;;21.98;39.83;100969.44;5033676;28;45456;-59
2022/06/26 08:54:55;;;;;;;;;1.50;1.50;;;;;22.07;40.40;100967.91;5030380;28;45650;-57
2022/06/26 08:57:21;;;;;;;;;3.00;2.00;;;;;22.13;40.08;100962.16;5017803;28;47181;-53
2022/06/26 08:59:47;;;;;;;;;1.00;1.00;;;;;22.15;39.43;100949.56;5018821;28;45546;-49
2022/06/26 09:02:12;;;;;;;;;5.50;1.00;;;;;22.15;38.90;100954.03;5037331;28;45366;-49
2022/06/26 09:04:38;;;;;;;;;2.50;2.50;;;;;22.17;38.98;100944.97;5029820;28;45387;-53
2022/06/26 09:07:06;;;;;;;;;2.75;1.00;;;;;22.24;39.13;100944.50;5037501;28;46010;-49
2022/06/26 09:09:31;;;;;;;;;2.00;2.00;;;;;22.28;38.89;100936.22;5035830;28;45485;-57
2022/06/26 09:11:59;;;;;;;;;1.75;1.00;;;;;22.39;38.85;100935.44;5027653;28;69061;-50
2022/06/26 09:14:26;;;;;;;;;2.00;2.00;;;;;22.51;38.86;100933.69;5033862;28;46365;-51
2022/06/26 09:16:52;;;;;;;;;2.00;2.00;;;;;22.67;37.91;100939.56;5035584;28;45521;-53
2022/06/26 09:19:20;;;;;;;;;2.00;1.00;;;;;22.78;37.79;100938.75;5033242;28;45244;-55
2022/06/26 09:21:49;;;;;;;;;1.25;1.00;;;;;22.88;39.02;100930.94;5033971;28;45360;-54
2022/06/26 09:24:17;;;;;;;;;2.00;2.00;;;;;22.89;37.28;100924.59;5031340;28;57825;-54
2022/06/26 09:26:43;;;;;;;;;2.75;1.00;;;;;22.92;37.58;100925.22;5032100;28;45466;-55
2022/06/26 09:29:14;;;;;;;;;2.50;1.50;;;;;22.93;37.34;100916.25;5030182;28;45338;-54
2022/06/26 09:31:40;;;;;;;;;0.75;0.75;;;;;22.91;37.65;100920.88;5027278;28;45299;-57
2022/06/26 09:34:19;;;;;;;;;3.50;3.00;;;;;22.89;37.92;100925.44;5028433;28;45197;-55
2022/06/26 09:36:56;;;;;;;;;3.75;3.00;;;;;22.93;37.19;100926.09;5035468;28;46451;-54
2022/06/26 09:39:21;;;;;;;;;4.75;4.00;;;;;23.05;37.32;100924.31;5018297;28;45521;-53
2022/06/26 09:41:47;;;;;;;;;4.00;3.50;;;;;23.18;37.18;100922.41;5036071;28;60739;-55
2022/06/26 09:44:22;;;;;;;;;1.00;1.00;;;;;23.38;36.62;100920.03;5033570;28;45454;-55
2022/06/26 09:46:49;;;;;;;;;4.25;1.25;;;;;23.60;36.22;100917.38;5038044;28;45479;-53
2022/06/26 09:49:16;;;;;;;;;2.00;1.00;;;;;23.76;35.53;100918.81;5034511;28;45856;-56
2022/06/26 09:51:41;;;;;;;;;2.75;1.50;;;;;23.82;35.83;100915.69;5027404;28;45364;-55
2022/06/26 09:54:07;;;;;;;;;3.25;2.50;;;;;23.82;36.04;100919.19;5036069;28;45378;-54
2022/06/26 09:56:32;;;;;;;;;3.00;2.00;;;;;23.78;35.25;100925.75;5033070;28;50602;-53
2022/06/26 09:58:59;;;;;;;;;2.00;2.00;;;;;23.77;35.74;100921.34;5030400;28;68966;-55
2022/06/26 10:06:56;;;;;;;;;4.50;3.00;;;;;24.26;35.20;100921.94;5031008;28;45546;-54
2022/06/26 10:09:22;;;;;;;;;3.25;2.00;;;;;24.40;35.17;100924.31;5015556;28;73888;-55
2022/06/26 10:11:47;;;;;;;;;5.00;2.75;;;;;24.83;35.07;100925.25;5026869;28;45500;-56
2022/06/26 10:14:21;;;;;;;;;6.00;4.75;;;;;25.89;34.51;100924.16;5029056;28;69612;-56
2022/06/26 10:17:06;;;;;;;;;5.00;4.00;;;;;27.00;34.18;100919.50;5029580;28;45544;-55
2022/06/26 10:19:40;;;;;;;;;5.25;3.50;;;;;27.98;32.23;100914.66;5033442;28;46123;-55
2022/06/26 10:22:06;;;;;;;;;7.00;4.75;;;;;28.95;31.04;100918.47;5030494;28;45527;-55
2022/06/26 10:24:32;;;;;;;;;4.00;4.00;;;;;30.00;30.49;100918.38;5037123;28;45494;-55
2022/06/26 10:27:00;;;;;;;;;3.25;1.00;;;;;31.46;29.37;100912.31;5038931;28;47503;-53
2022/06/26 10:29:40;;;;;;;;;0.25;0.00;;;;;32.45;27.41;100914.56;5035340;28;45696;-54
2022/06/26 10:32:07;;;;;;;;;0.75;0.00;;;;;33.19;27.46;100912.09;5032926;28;45352;-55
2022/06/26 10:34:32;;;;;;;;;3.00;1.00;;;;;34.10;25.88;100913.69;5034331;28;45542;-55
2022/06/26 10:37:10;;;;;;;;;1.25;1.25;;;;;35.15;25.55;100923.06;5031295;28;45518;-56
2022/06/26 10:39:38;;;;;;;;;5.25;1.00;;;;;36.11;24.52;100919.56;5032890;28;45374;-52
2022/06/26 10:44:56;;;;;;;;;2.25;1.00;;;;;37.47;21.82;100923.81;5031324;28;45458;-64
2022/06/26 10:47:21;;;;;;;;;0.25;0.25;;;;;37.12;21.19;100915.88;5031609;28;45512;-64
2022/06/26 10:49:51;;;;;;;;;0.00;0.00;;;;;36.75;20.96;100923.69;5035672;28;73095;-61
2022/06/26 10:52:31;;;;;;;;;1.25;1.25;;;;;37.07;21.43;100918.41;5036804;28;45574;-69
2022/06/26 10:55:00;;;;;;;;;2.00;2.00;;;;;37.52;21.31;100925.88;5035092;28;45584;-63
2022/06/26 10:57:36;;;;;;;;;1.00;1.00;;;;;38.05;20.85;100927.56;5035606;28;47125;-49
2022/06/26 11:00:07;;;;;;;;;3.00;1.00;;;;;38.20;20.93;100927.31;5026140;28;45455;-50
2022/06/26 11:02:36;;;;;;;;;4.25;2.50;;;;;38.30;21.43;100924.91;5031189;28;45435;-65
2022/06/26 11:05:02;;;;;;;;;4.25;0.75;;;;;38.06;19.88;100923.78;5037284;28;45446;-61
2022/06/26 11:07:28;;;;;;;;;4.00;0.75;;;;;38.08;17.76;100918.94;5035213;28;46016;-58
2022/06/26 11:09:57;;;;;;;;;3.00;2.00;;;;;38.21;21.13;100910.69;5032271;28;65192;-60
2022/06/26 11:12:22;;;;;;;;;2.50;1.00;;;;;37.92;20.47;100906.63;5026724;28;45452;-60
2022/06/26 11:14:47;;;;;;;;;2.75;0.75;;;;;37.76;20.35;100914.25;5023990;28;45512;-61
2022/06/26 11:17:13;;;;;;;;;2.75;1.00;;;;;37.03;16.92;100898.06;5033392;28;74861;-59
2022/06/26 11:22:26;;;;;;;;;3.25;2.75;;;;;35.62;21.91;100904.28;5033375;28;45478;-56
2022/06/26 11:24:54;;;;;;;;;8.00;4.50;;;;;35.66;21.67;100900.09;5030598;28;45404;-57
2022/06/26 11:27:23;;;;;;;;;2.75;2.00;;;;;35.80;21.83;100895.59;5031628;28;45528;-46
2022/06/26 11:29:49;;;;;;;;;7.00;1.50;;;;;36.19;20.66;100889.41;5028266;28;45655;-53
2022/06/26 11:32:14;;;;;;;;;2.00;2.00;;;;;36.34;19.20;100893.88;5037377;28;45341;-55
2022/06/26 11:34:49;;;;;;;;;2.00;1.25;;;;;36.64;19.90;100892.41;5038677;28;45304;-56